sensor_id;sensor_type;location;lat;lon;timestamp;P1;durP1;ratioP1;P2;durP2;ratioP2
13611;SDS011;6877;51.436;6.774;2022-09-16T05:40:04;11.68;;;4.47;;
13611;SDS011;6877;51.436;6.774;2022-09-16T05:42:36;13.07;;;4.60;;
13611;SDS011;6877;51.436;6.774;2022-09-16T05:45:08;7.22;;;4.10;;
13611;SDS011;6877;51.436;6.774;2022-09-16T05:47:40;10.70;;;5.95;;
13611;SDS011;6877;51.436;6.774;2022-09-16T05:50:11;8.18;;;4.05;;
13611;SDS011;6877;51.436;6.774;2022-09-16T06:11:06;9.50;;;4.80;;
13611;SDS011;6877;51.436;6.774;2022-09-16T06:13:42;7.10;;;3.50;;
13611;SDS011;6877;51.436;6.774;2022-09-16T06:16:14;12.40;;;3.97;;
13611;SDS011;6877;51.436;6.774;2022-09-16T06:18:45;49.85;;;5.13;;
13611;SDS011;6877;51.436;6.774;2022-09-16T06:21:17;14.80;;;4.55;;
13611;SDS011;6877;51.436;6.774;2022-09-16T06:23:48;11.07;;;4.03;;
13611;SDS011;6877;51.436;6.774;2022-09-16T06:26:21;16.77;;;6.03;;
13611;SDS011;6877;51.436;6.774;2022-09-16T06:28:54;10.27;;;4.43;;
13611;SDS011;6877;51.436;6.774;2022-09-16T06:31:22;13.40;;;4.20;;
13611;SDS011;6877;51.436;6.774;2022-09-16T06:33:56;11.18;;;3.78;;
13611;SDS011;6877;51.436;6.774;2022-09-16T06:36:29;5.60;;;4.20;;
13611;SDS011;6877;51.436;6.774;2022-09-16T06:39:03;11.38;;;3.78;;
13611;SDS011;6877;51.436;6.774;2022-09-16T06:41:35;14.80;;;5.10;;
13611;SDS011;6877;51.436;6.774;2022-09-16T06:44:07;8.50;;;4.22;;
13611;SDS011;6877;51.436;6.774;2022-09-16T06:46:34;10.73;;;4.55;;
13611;SDS011;6877;51.436;6.774;2022-09-16T06:49:05;9.57;;;4.90;;
13611;SDS011;6877;51.436;6.774;2022-09-16T06:51:37;8.73;;;4.00;;
13611;SDS011;6877;51.436;6.774;2022-09-16T06:54:09;12.38;;;3.65;;
13611;SDS011;6877;51.436;6.774;2022-09-16T06:56:40;5.78;;;3.67;;
13611;SDS011;6877;51.436;6.774;2022-09-16T06:59:14;11.98;;;3.63;;
13611;SDS011;6877;51.436;6.774;2022-09-16T07:01:46;5.68;;;3.42;;
13611;SDS011;6877;51.436;6.774;2022-09-16T07:04:18;7.90;;;3.55;;
13611;SDS011;6877;51.436;6.774;2022-09-16T07:06:49;7.45;;;3.38;;
13611;SDS011;6877;51.436;6.774;2022-09-16T07:09:16;5.68;;;4.22;;
13611;SDS011;6877;51.436;6.774;2022-09-16T07:11:48;7.03;;;3.38;;
13611;SDS011;6877;51.436;6.774;2022-09-16T07:14:20;8.70;;;4.13;;
13611;SDS011;6877;51.436;6.774;2022-09-16T07:16:51;7.47;;;3.08;;
13611;SDS011;6877;51.436;6.774;2022-09-16T07:19:23;5.38;;;2.88;;
13611;SDS011;6877;51.436;6.774;2022-09-16T07:21:51;8.85;;;3.05;;
13611;SDS011;6877;51.436;6.774;2022-09-16T07:24:23;5.10;;;2.20;;
13611;SDS011;6877;51.436;6.774;2022-09-16T07:26:49;9.20;;;3.92;;
13611;SDS011;6877;51.436;6.774;2022-09-16T07:29:22;11.07;;;2.83;;
13611;SDS011;6877;51.436;6.774;2022-09-16T07:31:56;6.07;;;2.80;;
13611;SDS011;6877;51.436;6.774;2022-09-16T07:34:28;8.90;;;3.42;;
13611;SDS011;6877;51.436;6.774;2022-09-16T07:36:59;4.95;;;2.70;;
13611;SDS011;6877;51.436;6.774;2022-09-16T07:39:26;6.53;;;3.50;;
13611;SDS011;6877;51.436;6.774;2022-09-16T07:41:58;5.57;;;2.92;;
13611;SDS011;6877;51.436;6.774;2022-09-16T07:44:32;4.90;;;2.70;;
13611;SDS011;6877;51.436;6.774;2022-09-16T07:46:58;8.55;;;3.15;;
13611;SDS011;6877;51.436;6.774;2022-09-16T07:49:32;3.42;;;2.53;;
13611;SDS011;6877;51.436;6.774;2022-09-16T07:52:04;7.60;;;3.35;;
13611;SDS011;6877;51.436;6.774;2022-09-16T07:54:31;4.93;;;2.42;;
13611;SDS011;6877;51.436;6.774;2022-09-16T07:57:03;7.50;;;3.03;;
13611;SDS011;6877;51.436;6.774;2022-09-16T07:59:50;6.65;;;2.30;;
13611;SDS011;6877;51.436;6.774;2022-09-16T08:02:18;3.25;;;1.95;;
13611;SDS011;6877;51.436;6.774;2022-09-16T08:04:50;3.13;;;1.77;;
13611;SDS011;6877;51.436;6.774;2022-09-16T08:07:21;4.32;;;1.63;;
13611;SDS011;6877;51.436;6.774;2022-09-16T08:09:49;2.30;;;1.77;;
13611;SDS011;6877;51.436;6.774;2022-09-16T08:12:16;3.40;;;1.95;;
13611;SDS011;6877;51.436;6.774;2022-09-16T08:14:47;3.15;;;1.40;;
13611;SDS011;6877;51.436;6.774;2022-09-16T08:17:19;4.78;;;1.42;;
13611;SDS011;6877;51.436;6.774;2022-09-16T08:19:45;5.60;;;1.67;;
13611;SDS011;6877;51.436;6.774;2022-09-16T08:22:11;7.15;;;1.63;;
13611;SDS011;6877;51.436;6.774;2022-09-16T08:24:43;4.90;;;2.08;;
13611;SDS011;6877;51.436;6.774;2022-09-16T08:27:14;2.38;;;1.20;;
13611;SDS011;6877;51.436;6.774;2022-09-16T08:29:46;6.78;;;1.27;;
13611;SDS011;6877;51.436;6.774;2022-09-16T08:32:17;6.15;;;1.30;;
13611;SDS011;6877;51.436;6.774;2022-09-16T08:34:49;2.40;;;1.23;;
13611;SDS011;6877;51.436;6.774;2022-09-16T08:37:21;3.50;;;1.20;;
13611;SDS011;6877;51.436;6.774;2022-09-16T08:39:53;2.53;;;1.40;;
13611;SDS011;6877;51.436;6.774;2022-09-16T08:42:29;3.35;;;1.50;;
13611;SDS011;6877;51.436;6.774;2022-09-16T08:50:36;2.88;;;1.02;;
13611;SDS011;6877;51.436;6.774;2022-09-16T08:53:12;3.75;;;1.55;;
13611;SDS011;6877;51.436;6.774;2022-09-16T08:56:04;6.28;;;1.23;;
13611;SDS011;6877;51.436;6.774;2022-09-16T08:58:41;4.18;;;0.93;;
13611;SDS011;6877;51.436;6.774;2022-09-16T09:01:17;5.07;;;1.25;;
13611;SDS011;6877;51.436;6.774;2022-09-16T09:04:04;2.50;;;1.00;;
13611;SDS011;6877;51.436;6.774;2022-09-16T09:31:30;4.38;;;1.40;;
13611;SDS011;6877;51.436;6.774;2022-09-16T09:45:42;6.18;;;1.40;;
13611;SDS011;6877;51.436;6.774;2022-09-16T09:48:24;3.70;;;1.10;;
13611;SDS011;6877;51.436;6.774;2022-09-16T10:02:41;2.38;;;1.13;;
13611;SDS011;6877;51.436;6.774;2022-09-16T10:05:18;2.90;;;0.77;;
13611;SDS011;6877;51.436;6.774;2022-09-16T10:07:51;3.03;;;0.80;;
13611;SDS011;6877;51.436;6.774;2022-09-16T10:10:26;6.13;;;1.27;;
13611;SDS011;6877;51.436;6.774;2022-09-16T10:13:11;3.25;;;0.80;;
13611;SDS011;6877;51.436;6.774;2022-09-16T10:15:48;4.13;;;0.88;;
13611;SDS011;6877;51.436;6.774;2022-09-16T10:18:25;2.38;;;1.05;;
13611;SDS011;6877;51.436;6.774;2022-09-16T10:21:07;5.45;;;1.23;;
13611;SDS011;6877;51.436;6.774;2022-09-16T10:23:51;4.13;;;0.85;;
13611;SDS011;6877;51.436;6.774;2022-09-16T10:26:24;1.50;;;0.85;;
13611;SDS011;6877;51.436;6.774;2022-09-16T10:29:02;1.80;;;0.80;;
13611;SDS011;6877;51.436;6.774;2022-09-16T10:31:45;3.53;;;0.90;;
13611;SDS011;6877;51.436;6.774;2022-09-16T10:37:00;6.20;;;1.45;;
13611;SDS011;6877;51.436;6.774;2022-09-16T10:39:49;1.98;;;1.00;;
13611;SDS011;6877;51.436;6.774;2022-09-16T10:42:25;1.50;;;1.00;;
13611;SDS011;6877;51.436;6.774;2022-09-16T10:44:55;3.97;;;1.02;;
13611;SDS011;6877;51.436;6.774;2022-09-16T10:47:30;8.65;;;1.40;;
13611;SDS011;6877;51.436;6.774;2022-09-16T10:50:03;5.72;;;1.27;;
13611;SDS011;6877;51.436;6.774;2022-09-16T10:52:41;2.78;;;0.80;;
13611;SDS011;6877;51.436;6.774;2022-09-16T10:57:50;2.45;;;1.13;;
13611;SDS011;6877;51.436;6.774;2022-09-16T11:00:23;4.07;;;1.23;;
13611;SDS011;6877;51.436;6.774;2022-09-16T11:03:12;5.85;;;1.20;;
13611;SDS011;6877;51.436;6.774;2022-09-16T11:09:20;4.68;;;1.23;;
13611;SDS011;6877;51.436;6.774;2022-09-16T11:15:51;3.15;;;1.05;;
13611;SDS011;6877;51.436;6.774;2022-09-16T11:18:23;5.40;;;2.47;;
13611;SDS011;6877;51.436;6.774;2022-09-16T11:21:16;3.80;;;1.60;;
13611;SDS011;6877;51.436;6.774;2022-09-16T11:24:10;4.68;;;1.70;;
13611;SDS011;6877;51.436;6.774;2022-09-16T11:29:39;4.03;;;1.70;;
13611;SDS011;6877;51.436;6.774;2022-09-16T11:57:15;3.33;;;1.90;;
13611;SDS011;6877;51.436;6.774;2022-09-16T11:59:53;6.63;;;2.00;;
13611;SDS011;6877;51.436;6.774;2022-09-16T12:02:35;9.77;;;2.42;;
13611;SDS011;6877;51.436;6.774;2022-09-16T12:07:56;8.65;;;1.80;;
13611;SDS011;6877;51.436;6.774;2022-09-16T12:10:35;4.35;;;2.00;;
13611;SDS011;6877;51.436;6.774;2022-09-16T12:13:15;4.45;;;1.60;;
13611;SDS011;6877;51.436;6.774;2022-09-16T12:15:58;4.95;;;1.77;;
13611;SDS011;6877;51.436;6.774;2022-09-16T12:18:47;2.88;;;1.40;;
13611;SDS011;6877;51.436;6.774;2022-09-16T12:24:02;5.25;;;1.45;;
13611;SDS011;6877;51.436;6.774;2022-09-16T12:29:17;1.80;;;1.15;;
13611;SDS011;6877;51.436;6.774;2022-09-16T12:34:54;1.63;;;1.52;;
13611;SDS011;6877;51.436;6.774;2022-09-16T12:37:47;3.92;;;1.20;;
13611;SDS011;6877;51.436;6.774;2022-09-16T12:40:24;4.93;;;1.60;;
13611;SDS011;6877;51.436;6.774;2022-09-16T13:02:53;3.45;;;1.10;;
13611;SDS011;6877;51.436;6.774;2022-09-16T13:05:35;3.00;;;1.45;;
13611;SDS011;6877;51.436;6.774;2022-09-16T13:08:42;2.22;;;1.60;;
13611;SDS011;6877;51.436;6.774;2022-09-16T13:11:07;7.55;;;2.15;;
13611;SDS011;6877;51.436;6.774;2022-09-16T13:13:50;3.38;;;1.63;;
13611;SDS011;6877;51.436;6.774;2022-09-16T13:16:29;4.88;;;1.00;;
13611;SDS011;6877;51.436;6.774;2022-09-16T13:19:18;4.03;;;1.00;;
13611;SDS011;6877;51.436;6.774;2022-09-16T13:21:58;3.40;;;1.73;;
13611;SDS011;6877;51.436;6.774;2022-09-16T13:24:42;2.80;;;1.58;;
13611;SDS011;6877;51.436;6.774;2022-09-16T13:33:00;5.10;;;1.80;;
13611;SDS011;6877;51.436;6.774;2022-09-16T13:35:42;6.93;;;2.03;;
13611;SDS011;6877;51.436;6.774;2022-09-16T13:46:00;2.28;;;1.85;;
13611;SDS011;6877;51.436;6.774;2022-09-16T13:48:35;4.22;;;1.77;;
13611;SDS011;6877;51.436;6.774;2022-09-16T13:51:13;4.25;;;2.55;;
13611;SDS011;6877;51.436;6.774;2022-09-16T13:53:49;6.03;;;3.00;;
13611;SDS011;6877;51.436;6.774;2022-09-16T14:13:18;2.10;;;1.33;;
13611;SDS011;6877;51.436;6.774;2022-09-16T14:15:51;4.20;;;1.35;;
13611;SDS011;6877;51.436;6.774;2022-09-16T14:18:28;4.28;;;1.38;;
13611;SDS011;6877;51.436;6.774;2022-09-16T14:21:04;4.13;;;1.23;;
13611;SDS011;6877;51.436;6.774;2022-09-16T14:23:47;2.13;;;1.13;;
13611;SDS011;6877;51.436;6.774;2022-09-16T14:26:16;1.88;;;1.10;;
13611;SDS011;6877;51.436;6.774;2022-09-16T14:28:49;1.80;;;1.23;;
13611;SDS011;6877;51.436;6.774;2022-09-16T14:31:32;3.10;;;1.33;;
13611;SDS011;6877;51.436;6.774;2022-09-16T14:34:04;4.22;;;1.10;;
13611;SDS011;6877;51.436;6.774;2022-09-16T14:36:39;2.65;;;1.33;;
13611;SDS011;6877;51.436;6.774;2022-09-16T14:39:15;2.92;;;1.50;;
13611;SDS011;6877;51.436;6.774;2022-09-16T14:41:49;3.40;;;1.55;;
13611;SDS011;6877;51.436;6.774;2022-09-16T14:46:50;3.78;;;1.52;;
13611;SDS011;6877;51.436;6.774;2022-09-16T14:49:25;4.43;;;1.20;;
13611;SDS011;6877;51.436;6.774;2022-09-16T14:51:59;8.60;;;1.40;;
13611;SDS011;6877;51.436;6.774;2022-09-16T14:54:29;2.10;;;1.90;;
13611;SDS011;6877;51.436;6.774;2022-09-16T14:57:05;5.57;;;1.70;;
13611;SDS011;6877;51.436;6.774;2022-09-16T14:59:40;6.22;;;1.75;;
13611;SDS011;6877;51.436;6.774;2022-09-16T15:02:12;5.18;;;2.00;;
13611;SDS011;6877;51.436;6.774;2022-09-16T15:04:52;6.07;;;2.08;;
13611;SDS011;6877;51.436;6.774;2022-09-16T15:07:32;6.00;;;2.03;;
13611;SDS011;6877;51.436;6.774;2022-09-16T15:12:51;13.52;;;2.22;;
13611;SDS011;6877;51.436;6.774;2022-09-16T15:15:23;9.55;;;2.70;;
13611;SDS011;6877;51.436;6.774;2022-09-16T15:18:06;4.22;;;2.00;;
13611;SDS011;6877;51.436;6.774;2022-09-16T15:20:48;4.68;;;1.83;;
13611;SDS011;6877;51.436;6.774;2022-09-16T15:23:24;5.95;;;2.17;;
13611;SDS011;6877;51.436;6.774;2022-09-16T15:25:58;5.07;;;1.70;;
13611;SDS011;6877;51.436;6.774;2022-09-16T15:28:59;3.50;;;1.60;;
13611;SDS011;6877;51.436;6.774;2022-09-16T15:44:56;10.55;;;1.70;;
13611;SDS011;6877;51.436;6.774;2022-09-16T15:47:30;4.32;;;1.75;;
13611;SDS011;6877;51.436;6.774;2022-09-16T15:50:11;6.85;;;1.90;;
13611;SDS011;6877;51.436;6.774;2022-09-16T15:55:39;8.77;;;1.67;;
13611;SDS011;6877;51.436;6.774;2022-09-16T16:03:49;3.85;;;2.10;;
13611;SDS011;6877;51.436;6.774;2022-09-16T16:12:05;3.88;;;1.80;;
13611;SDS011;6877;51.436;6.774;2022-09-16T16:14:42;4.30;;;1.95;;
13611;SDS011;6877;51.436;6.774;2022-09-16T16:17:15;10.85;;;2.58;;
13611;SDS011;6877;51.436;6.774;2022-09-16T16:19:44;3.88;;;2.28;;
13611;SDS011;6877;51.436;6.774;2022-09-16T16:22:18;5.38;;;1.95;;
13611;SDS011;6877;51.436;6.774;2022-09-16T16:24:50;5.18;;;1.83;;
13611;SDS011;6877;51.436;6.774;2022-09-16T16:27:21;2.42;;;1.50;;
13611;SDS011;6877;51.436;6.774;2022-09-16T16:29:54;2.10;;;1.52;;
13611;SDS011;6877;51.436;6.774;2022-09-16T16:32:25;6.43;;;1.80;;
13611;SDS011;6877;51.436;6.774;2022-09-16T16:34:57;4.25;;;1.85;;
13611;SDS011;6877;51.436;6.774;2022-09-16T16:37:29;4.75;;;1.50;;
13611;SDS011;6877;51.436;6.774;2022-09-16T16:40:01;6.28;;;1.75;;
13611;SDS011;6877;51.436;6.774;2022-09-16T16:42:33;3.67;;;2.00;;
13611;SDS011;6877;51.436;6.774;2022-09-16T16:45:06;4.60;;;1.92;;
13611;SDS011;6877;51.436;6.774;2022-09-16T16:47:32;6.32;;;1.90;;
13611;SDS011;6877;51.436;6.774;2022-09-16T16:50:04;5.15;;;1.77;;
13611;SDS011;6877;51.436;6.774;2022-09-16T16:52:36;5.68;;;1.83;;
13611;SDS011;6877;51.436;6.774;2022-09-16T16:55:08;5.40;;;1.88;;
13611;SDS011;6877;51.436;6.774;2022-09-16T16:57:40;5.97;;;1.80;;
13611;SDS011;6877;51.436;6.774;2022-09-16T17:00:12;4.72;;;2.47;;
13611;SDS011;6877;51.436;6.774;2022-09-16T17:02:44;6.68;;;1.85;;
13611;SDS011;6877;51.436;6.774;2022-09-16T17:05:16;5.65;;;1.98;;
13611;SDS011;6877;51.436;6.774;2022-09-16T17:07:47;5.25;;;2.10;;
13611;SDS011;6877;51.436;6.774;2022-09-16T17:10:18;8.70;;;2.67;;
13611;SDS011;6877;51.436;6.774;2022-09-16T17:12:53;11.50;;;2.17;;
13611;SDS011;6877;51.436;6.774;2022-09-16T17:15:24;9.98;;;2.55;;
13611;SDS011;6877;51.436;6.774;2022-09-16T17:17:56;9.45;;;3.15;;
13611;SDS011;6877;51.436;6.774;2022-09-16T17:20:27;5.22;;;2.08;;
13611;SDS011;6877;51.436;6.774;2022-09-16T17:22:59;5.60;;;2.35;;
13611;SDS011;6877;51.436;6.774;2022-09-16T17:25:32;8.18;;;2.47;;
13611;SDS011;6877;51.436;6.774;2022-09-16T17:28:03;4.50;;;2.15;;
13611;SDS011;6877;51.436;6.774;2022-09-16T17:30:35;5.35;;;1.92;;
13611;SDS011;6877;51.436;6.774;2022-09-16T17:33:01;6.50;;;2.08;;
13611;SDS011;6877;51.436;6.774;2022-09-16T17:35:28;5.78;;;2.60;;
13611;SDS011;6877;51.436;6.774;2022-09-16T17:38:00;4.65;;;2.05;;
13611;SDS011;6877;51.436;6.774;2022-09-16T17:40:31;10.93;;;2.35;;
13611;SDS011;6877;51.436;6.774;2022-09-16T17:43:02;9.45;;;2.33;;
13611;SDS011;6877;51.436;6.774;2022-09-16T17:45:31;8.55;;;2.50;;
13611;SDS011;6877;51.436;6.774;2022-09-16T17:48:03;9.55;;;2.65;;
13611;SDS011;6877;51.436;6.774;2022-09-16T17:50:34;4.80;;;2.20;;
13611;SDS011;6877;51.436;6.774;2022-09-16T17:53:08;7.88;;;3.03;;
13611;SDS011;6877;51.436;6.774;2022-09-16T17:55:42;5.82;;;2.95;;
13611;SDS011;6877;51.436;6.774;2022-09-16T17:58:14;4.53;;;2.03;;
13611;SDS011;6877;51.436;6.774;2022-09-16T18:00:46;7.55;;;2.25;;
13611;SDS011;6877;51.436;6.774;2022-09-16T18:03:18;5.72;;;2.10;;
13611;SDS011;6877;51.436;6.774;2022-09-16T18:05:49;5.10;;;2.20;;
13611;SDS011;6877;51.436;6.774;2022-09-16T18:08:21;17.08;;;2.90;;
13611;SDS011;6877;51.436;6.774;2022-09-16T18:10:53;12.02;;;3.10;;
13611;SDS011;6877;51.436;6.774;2022-09-16T18:13:25;18.77;;;4.55;;
13611;SDS011;6877;51.436;6.774;2022-09-16T18:16:00;14.85;;;2.90;;
13611;SDS011;6877;51.436;6.774;2022-09-16T18:18:32;18.90;;;4.90;;
13611;SDS011;6877;51.436;6.774;2022-09-16T18:21:08;15.85;;;4.95;;
13611;SDS011;6877;51.436;6.774;2022-09-16T18:23:41;19.80;;;4.40;;
13611;SDS011;6877;51.436;6.774;2022-09-16T18:26:13;17.77;;;3.70;;
13611;SDS011;6877;51.436;6.774;2022-09-16T18:28:46;9.60;;;3.15;;
13611;SDS011;6877;51.436;6.774;2022-09-16T18:31:21;12.00;;;2.92;;
13611;SDS011;6877;51.436;6.774;2022-09-16T18:33:54;11.98;;;3.08;;
13611;SDS011;6877;51.436;6.774;2022-09-16T18:36:26;9.57;;;2.72;;
13611;SDS011;6877;51.436;6.774;2022-09-16T18:39:00;14.48;;;4.28;;
13611;SDS011;6877;51.436;6.774;2022-09-16T18:41:35;8.57;;;2.47;;
13611;SDS011;6877;51.436;6.774;2022-09-16T18:44:19;9.95;;;3.08;;
13611;SDS011;6877;51.436;6.774;2022-09-16T18:46:53;5.50;;;3.13;;
13611;SDS011;6877;51.436;6.774;2022-09-16T18:49:25;7.53;;;2.00;;
13611;SDS011;6877;51.436;6.774;2022-09-16T18:51:53;4.40;;;1.95;;
13611;SDS011;6877;51.436;6.774;2022-09-16T18:54:23;8.50;;;1.98;;
13611;SDS011;6877;51.436;6.774;2022-09-16T18:56:56;4.50;;;2.58;;
13611;SDS011;6877;51.436;6.774;2022-09-16T18:59:30;2.72;;;1.75;;
13611;SDS011;6877;51.436;6.774;2022-09-16T19:02:02;10.02;;;3.78;;
13611;SDS011;6877;51.436;6.774;2022-09-16T19:04:39;3.25;;;2.15;;
13611;SDS011;6877;51.436;6.774;2022-09-16T19:07:12;5.05;;;2.55;;
13611;SDS011;6877;51.436;6.774;2022-09-16T19:09:50;8.40;;;2.42;;
13611;SDS011;6877;51.436;6.774;2022-09-16T19:12:16;6.80;;;2.60;;
13611;SDS011;6877;51.436;6.774;2022-09-16T19:14:43;5.88;;;1.92;;
13611;SDS011;6877;51.436;6.774;2022-09-16T19:17:17;3.72;;;2.22;;
13611;SDS011;6877;51.436;6.774;2022-09-16T19:19:49;4.00;;;2.28;;
13611;SDS011;6877;51.436;6.774;2022-09-16T19:22:21;5.35;;;2.15;;
13611;SDS011;6877;51.436;6.774;2022-09-16T19:24:53;6.60;;;2.45;;
13611;SDS011;6877;51.436;6.774;2022-09-16T19:27:24;3.95;;;2.10;;
13611;SDS011;6877;51.436;6.774;2022-09-16T19:29:55;9.30;;;3.45;;
13611;SDS011;6877;51.436;6.774;2022-09-16T19:32:27;7.03;;;2.55;;
13611;SDS011;6877;51.436;6.774;2022-09-16T19:34:58;15.85;;;3.03;;
13611;SDS011;6877;51.436;6.774;2022-09-16T19:37:30;6.75;;;2.17;;
13611;SDS011;6877;51.436;6.774;2022-09-16T19:40:02;7.85;;;2.20;;
13611;SDS011;6877;51.436;6.774;2022-09-16T19:42:29;4.05;;;2.00;;
13611;SDS011;6877;51.436;6.774;2022-09-16T19:45:00;6.80;;;2.45;;
13611;SDS011;6877;51.436;6.774;2022-09-16T19:47:31;9.98;;;2.05;;
13611;SDS011;6877;51.436;6.774;2022-09-16T19:49:58;6.60;;;2.17;;
13611;SDS011;6877;51.436;6.774;2022-09-16T19:52:30;10.77;;;3.13;;
13611;SDS011;6877;51.436;6.774;2022-09-16T19:54:57;8.60;;;2.33;;
13611;SDS011;6877;51.436;6.774;2022-09-16T19:57:28;5.22;;;2.50;;
13611;SDS011;6877;51.436;6.774;2022-09-16T20:00:00;4.65;;;2.47;;
13611;SDS011;6877;51.436;6.774;2022-09-16T20:02:27;6.15;;;2.33;;
13611;SDS011;6877;51.436;6.774;2022-09-16T20:04:58;6.63;;;2.75;;
13611;SDS011;6877;51.436;6.774;2022-09-16T20:07:30;9.85;;;2.97;;
13611;SDS011;6877;51.436;6.774;2022-09-16T20:10:02;6.00;;;2.28;;
13611;SDS011;6877;51.436;6.774;2022-09-16T20:12:29;5.60;;;2.50;;
13611;SDS011;6877;51.436;6.774;2022-09-16T20:14:56;10.60;;;3.17;;
13611;SDS011;6877;51.436;6.774;2022-09-16T20:17:22;8.75;;;3.92;;
13611;SDS011;6877;51.436;6.774;2022-09-16T20:19:49;5.20;;;4.45;;
13611;SDS011;6877;51.436;6.774;2022-09-16T20:22:21;6.25;;;2.15;;
13611;SDS011;6877;51.436;6.774;2022-09-16T20:24:52;7.95;;;2.78;;
13611;SDS011;6877;51.436;6.774;2022-09-16T21:16:48;6.47;;;3.17;;
13611;SDS011;6877;51.436;6.774;2022-09-16T21:19:15;11.00;;;2.92;;
13611;SDS011;6877;51.436;6.774;2022-09-16T21:21:48;8.48;;;2.30;;
13611;SDS011;6877;51.436;6.774;2022-09-16T21:24:19;5.70;;;2.20;;
13611;SDS011;6877;51.436;6.774;2022-09-16T21:26:46;8.63;;;3.47;;
13611;SDS011;6877;51.436;6.774;2022-09-16T21:29:13;15.23;;;3.70;;
13611;SDS011;6877;51.436;6.774;2022-09-16T21:31:44;12.27;;;2.50;;
13611;SDS011;6877;51.436;6.774;2022-09-16T21:34:12;7.97;;;2.70;;
13611;SDS011;6877;51.436;6.774;2022-09-16T21:36:45;8.05;;;2.45;;
13611;SDS011;6877;51.436;6.774;2022-09-16T21:39:21;8.30;;;2.70;;
13611;SDS011;6877;51.436;6.774;2022-09-16T21:41:54;10.55;;;2.72;;
13611;SDS011;6877;51.436;6.774;2022-09-16T21:44:25;11.85;;;3.33;;
13611;SDS011;6877;51.436;6.774;2022-09-16T21:46:52;8.48;;;2.60;;
13611;SDS011;6877;51.436;6.774;2022-09-16T21:49:18;12.63;;;2.53;;
13611;SDS011;6877;51.436;6.774;2022-09-16T21:51:54;6.65;;;2.97;;
13611;SDS011;6877;51.436;6.774;2022-09-16T21:54:23;8.55;;;3.17;;
13611;SDS011;6877;51.436;6.774;2022-09-16T21:56:55;6.70;;;2.40;;
13611;SDS011;6877;51.436;6.774;2022-09-16T21:59:27;8.52;;;2.88;;
13611;SDS011;6877;51.436;6.774;2022-09-16T22:01:53;14.27;;;3.25;;
13611;SDS011;6877;51.436;6.774;2022-09-16T22:04:25;12.82;;;2.97;;
13611;SDS011;6877;51.436;6.774;2022-09-16T22:06:57;15.15;;;3.97;;
13611;SDS011;6877;51.436;6.774;2022-09-16T22:09:28;9.88;;;3.45;;
13611;SDS011;6877;51.436;6.774;2022-09-16T22:11:55;7.53;;;3.40;;
13611;SDS011;6877;51.436;6.774;2022-09-16T22:14:26;8.43;;;3.03;;
13611;SDS011;6877;51.436;6.774;2022-09-16T22:16:58;7.00;;;2.90;;
13611;SDS011;6877;51.436;6.774;2022-09-16T22:19:29;16.17;;;3.13;;
13611;SDS011;6877;51.436;6.774;2022-09-16T22:21:56;15.65;;;3.78;;
13611;SDS011;6877;51.436;6.774;2022-09-16T22:24:27;10.63;;;2.78;;
13611;SDS011;6877;51.436;6.774;2022-09-16T22:26:59;13.48;;;5.10;;
13611;SDS011;6877;51.436;6.774;2022-09-16T22:29:25;14.75;;;3.47;;
13611;SDS011;6877;51.436;6.774;2022-09-16T22:31:57;9.95;;;3.60;;
13611;SDS011;6877;51.436;6.774;2022-09-16T22:34:28;18.15;;;3.80;;
13611;SDS011;6877;51.436;6.774;2022-09-16T22:36:55;8.27;;;3.33;;
13611;SDS011;6877;51.436;6.774;2022-09-16T22:39:21;11.70;;;3.88;;
13611;SDS011;6877;51.436;6.774;2022-09-16T22:41:48;8.38;;;2.97;;
13611;SDS011;6877;51.436;6.774;2022-09-16T22:44:14;14.65;;;3.03;;
13611;SDS011;6877;51.436;6.774;2022-09-16T22:46:46;9.48;;;3.15;;
13611;SDS011;6877;51.436;6.774;2022-09-16T22:49:13;8.65;;;2.63;;
13611;SDS011;6877;51.436;6.774;2022-09-16T22:51:46;8.20;;;2.90;;
13611;SDS011;6877;51.436;6.774;2022-09-16T22:54:20;9.88;;;3.50;;
13611;SDS011;6877;51.436;6.774;2022-09-16T22:56:47;6.97;;;2.90;;
13611;SDS011;6877;51.436;6.774;2022-09-16T22:59:21;13.77;;;3.30;;
13611;SDS011;6877;51.436;6.774;2022-09-16T23:01:48;10.32;;;4.60;;
13611;SDS011;6877;51.436;6.774;2022-09-16T23:04:15;18.15;;;3.58;;
13611;SDS011;6877;51.436;6.774;2022-09-16T23:06:49;8.82;;;4.88;;
13611;SDS011;6877;51.436;6.774;2022-09-16T23:09:21;12.93;;;5.15;;
13611;SDS011;6877;51.436;6.774;2022-09-16T23:11:51;17.08;;;3.28;;
13611;SDS011;6877;51.436;6.774;2022-09-16T23:14:18;16.73;;;3.45;;
13611;SDS011;6877;51.436;6.774;2022-09-16T23:16:47;7.60;;;3.28;;
13611;SDS011;6877;51.436;6.774;2022-09-16T23:19:21;19.35;;;4.05;;
13611;SDS011;6877;51.436;6.774;2022-09-16T23:21:53;11.63;;;4.30;;
13611;SDS011;6877;51.436;6.774;2022-09-16T23:24:25;5.40;;;3.72;;
13611;SDS011;6877;51.436;6.774;2022-09-16T23:26:51;12.30;;;3.97;;
13611;SDS011;6877;51.436;6.774;2022-09-16T23:29:23;4.57;;;2.90;;
13611;SDS011;6877;51.436;6.774;2022-09-16T23:31:49;4.18;;;3.08;;
13611;SDS011;6877;51.436;6.774;2022-09-16T23:34:17;10.75;;;3.35;;
13611;SDS011;6877;51.436;6.774;2022-09-16T23:36:52;13.43;;;4.30;;
13611;SDS011;6877;51.436;6.774;2022-09-16T23:39:22;11.20;;;6.03;;
13611;SDS011;6877;51.436;6.774;2022-09-16T23:41:53;16.70;;;4.65;;
13611;SDS011;6877;51.436;6.774;2022-09-16T23:44:21;9.50;;;3.90;;
13611;SDS011;6877;51.436;6.774;2022-09-16T23:46:50;7.97;;;3.50;;
13611;SDS011;6877;51.436;6.774;2022-09-16T23:49:16;15.63;;;4.15;;
13611;SDS011;6877;51.436;6.774;2022-09-16T23:51:45;10.13;;;3.53;;
13611;SDS011;6877;51.436;6.774;2022-09-16T23:54:13;12.43;;;3.78;;
13611;SDS011;6877;51.436;6.774;2022-09-16T23:56:40;8.98;;;3.88;;
13611;SDS011;6877;51.436;6.774;2022-09-16T23:59:12;13.57;;;3.35;;
